Time;durP1;ratioP1;P1;durP2;ratioP2;P2;SDS_P1;SDS_P2;PMS_P1;PMS_P2;Temp;Humidity;BMP_temperature;BMP_pressure;BME280_temperature;BME280_humidity;BME280_pressure;Samples;Min_cycle;Max_cycle;Signal;HPM_P1;HPM_P2
2023/03/26 00:00:39;;;;;;;0.30;0.30;;;;;;;;;;5013717;28;20060;-50
2023/03/26 00:03:06;;;;;;;0.60;0.57;;;;;;;;;;5013568;28;20117;-50
2023/03/26 00:05:32;;;;;;;0.52;0.40;;;;;;;;;;5013738;28;20038;-50
2023/03/26 00:07:58;;;;;;;0.98;0.30;;;9.30;99.90;;;;;;5028017;28;20045;-51
2023/03/26 00:10:24;;;;;;;0.22;0.22;;;9.30;99.90;;;;;;5013382;28;20481;-51
2023/03/26 00:12:50;;;;;;;0.30;0.30;;;9.30;99.90;;;;;;5013337;28;20041;-51
2023/03/26 00:15:16;;;;;;;0.30;0.30;;;9.30;99.90;;;;;;5028146;28;20390;-52
2023/03/26 00:17:45;;;;;;;0.85;0.68;;;9.30;99.90;;;;;;5027790;28;20078;-49
2023/03/26 00:20:11;;;;;;;0.55;0.55;;;9.30;99.90;;;;;;5013152;28;20038;-50
2023/03/26 00:22:38;;;;;;;0.50;0.50;;;9.30;99.90;;;;;;5013125;28;20130;-50
2023/03/26 00:25:06;;;;;;;0.50;0.50;;;9.60;99.90;;;;;;5013715;28;20117;-51
2023/03/26 00:27:32;;;;;;;0.88;0.88;;;9.80;99.90;;;;;;5027512;28;20133;-50
2023/03/26 00:29:59;;;;;;;0.60;0.45;;;10.00;99.90;;;;;;5013154;28;20061;-50
2023/03/26 00:32:27;;;;;;;0.80;0.65;;;10.10;99.90;;;;;;5013072;28;20038;-50
2023/03/26 00:34:54;;;;;;;0.90;0.90;;;10.20;99.90;;;;;;5027968;28;20038;-50
2023/03/26 00:37:25;;;;;;;0.55;0.55;;;10.30;99.90;;;;;;5013048;28;20099;-50
2023/03/26 00:40:03;;;;;;;0.63;0.63;;;10.30;99.90;;;;;;5013089;28;20034;-51
2023/03/26 00:42:29;;;;;;;0.82;0.82;;;10.40;99.90;;;;;;5012950;28;20030;-51
2023/03/26 00:44:56;;;;;;;0.70;0.70;;;10.50;99.90;;;;;;5013615;28;20036;-50
2023/03/26 00:47:27;;;;;;;0.75;0.60;;;10.50;99.90;;;;;;5013193;28;20124;-52
2023/03/26 00:49:53;;;;;;;0.68;0.68;;;10.50;99.90;;;;;;5013088;28;20026;-50
2023/03/26 00:52:19;;;;;;;0.82;0.82;;;10.50;99.90;;;;;;5029591;28;20045;-50
2023/03/26 00:54:46;;;;;;;0.93;0.73;;;10.50;99.90;;;;;;5031221;28;20038;-52
2023/03/26 00:57:12;;;;;;;0.93;0.70;;;10.50;99.90;;;;;;5016745;28;20540;-51
2023/03/26 00:59:39;;;;;;;0.45;0.45;;;10.60;99.90;;;;;;5016687;28;20033;-51
2023/03/26 01:02:09;;;;;;;1.20;0.77;;;10.60;99.90;;;;;;5031257;28;20397;-50
2023/03/26 01:04:36;;;;;;;0.80;0.80;;;10.50;99.90;;;;;;5016609;28;20037;-52
2023/03/26 01:07:12;;;;;;;0.75;0.75;;;10.40;99.90;;;;;;5016366;28;20045;-50
2023/03/26 01:09:43;;;;;;;0.73;0.73;;;10.00;99.90;;;;;;5016352;28;20041;-52
2023/03/26 01:12:17;;;;;;;0.40;0.40;;;9.70;99.90;;;;;;5016184;28;20026;-52
2023/03/26 01:14:44;;;;;;;0.52;0.52;;;9.70;99.90;;;;;;5016605;28;20394;-51
2023/03/26 01:17:12;;;;;;;0.80;0.80;;;9.80;99.90;;;;;;5016287;28;20035;-52
2023/03/26 01:19:44;;;;;;;0.45;0.45;;;10.00;99.90;;;;;;5015382;28;20096;-51
2023/03/26 01:22:16;;;;;;;1.38;0.93;;;10.00;99.90;;;;;;5016001;28;20049;-52
2023/03/26 01:24:44;;;;;;;0.35;0.35;;;10.00;99.90;;;;;;5015828;28;20037;-51
2023/03/26 01:27:33;;;;;;;0.73;0.70;;;10.10;99.90;;;;;;5016169;28;20069;-52
2023/03/26 01:30:05;;;;;;;1.75;0.90;;;10.10;99.90;;;;;;5015993;28;20486;-50
2023/03/26 01:32:36;;;;;;;1.00;1.00;;;10.00;99.90;;;;;;5016194;28;20030;-53
2023/03/26 01:35:17;;;;;;;0.60;0.60;;;10.10;99.90;;;;;;5016160;28;20037;-51
2023/03/26 01:38:10;;;;;;;1.67;1.30;;;10.00;99.90;;;;;;5011151;28;20026;-52
2023/03/26 01:40:42;;;;;;;;;;;9.90;99.90;;;;;;4997085;28;20030;-52
2023/03/26 01:43:25;;;;;;;1.00;0.60;;;9.80;99.90;;;;;;4994337;28;19929;-51
2023/03/26 01:45:51;;;;;;;0.93;0.47;;;10.00;99.90;;;;;;4995997;28;20034;-51
2023/03/26 01:48:17;;;;;;;1.00;1.00;;;10.00;99.90;;;;;;4992346;28;20042;-51
2023/03/26 01:50:43;;;;;;;0.50;0.50;;;10.00;99.90;;;;;;4977934;28;20105;-51
2023/03/26 01:53:11;;;;;;;1.00;0.70;;;9.90;99.90;;;;;;4996298;28;20034;-50
2023/03/26 01:55:54;;;;;;;0.85;0.80;;;9.60;99.90;;;;;;4995935;28;20026;-51
2023/03/26 01:58:26;;;;;;;1.20;0.82;;;9.60;99.90;;;;;;4993955;28;20237;-51
2023/03/26 02:01:04;;;;;;;0.38;0.38;;;9.70;99.90;;;;;;4995941;28;20538;-51
2023/03/26 02:03:40;;;;;;;1.05;0.85;;;9.70;99.90;;;;;;4994819;28;20113;-52
2023/03/26 02:06:17;;;;;;;1.08;0.98;;;9.60;99.90;;;;;;4995671;28;20031;-50
2023/03/26 02:09:01;;;;;;;0.88;0.60;;;9.70;99.90;;;;;;5009120;28;20031;-52
2023/03/26 02:11:27;;;;;;;0.75;0.73;;;9.50;99.90;;;;;;4995594;28;20385;-50
2023/03/26 02:13:53;;;;;;;0.88;0.82;;;9.40;99.90;;;;;;4995786;28;20117;-52
2023/03/26 02:16:19;;;;;;;1.98;1.02;;;9.50;99.90;;;;;;4993986;28;20034;-51
2023/03/26 02:18:50;;;;;;;0.80;0.80;;;9.50;99.90;;;;;;4995381;28;20068;-51
2023/03/26 02:21:21;;;;;;;0.70;0.70;;;9.60;99.90;;;;;;4995149;28;20066;-51
2023/03/26 02:23:56;;;;;;;0.57;0.57;;;9.80;99.90;;;;;;4995341;28;20078;-51
2023/03/26 02:26:23;;;;;;;0.43;0.43;;;9.80;99.90;;;;;;4995312;28;20038;-50
2023/03/26 02:28:49;;;;;;;0.50;0.50;;;9.90;99.90;;;;;;4995302;28;20034;-51
2023/03/26 02:31:16;;;;;;;1.75;0.60;;;9.80;99.90;;;;;;4995189;28;20029;-51
2023/03/26 02:33:43;;;;;;;1.02;1.00;;;9.70;99.90;;;;;;5009310;28;20041;-51
2023/03/26 02:36:12;;;;;;;0.55;0.55;;;9.60;99.90;;;;;;4995193;28;20054;-51
2023/03/26 02:38:39;;;;;;;1.45;0.73;;;9.50;99.90;;;;;;4961505;28;20062;-51
2023/03/26 02:41:05;;;;;;;1.00;0.80;;;9.20;99.90;;;;;;4995400;28;20037;-51
2023/03/26 02:43:30;;;;;;;1.27;1.13;;;9.20;99.90;;;;;;4995114;28;20145;-52
2023/03/26 02:45:57;;;;;;;1.25;1.15;;;9.20;99.90;;;;;;4994840;28;20065;-52
2023/03/26 02:48:22;;;;;;;1.35;0.90;;;9.30;99.90;;;;;;4994904;28;20034;-51
2023/03/26 02:50:53;;;;;;;3.13;1.75;;;9.30;99.90;;;;;;4994760;28;20026;-51
2023/03/26 02:53:20;;;;;;;2.20;1.83;;;9.30;99.90;;;;;;4994836;28;20109;-51
2023/03/26 02:55:46;;;;;;;0.68;0.68;;;9.30;99.90;;;;;;4994674;28;20379;-51
2023/03/26 02:58:16;;;;;;;0.70;0.65;;;9.30;99.90;;;;;;4994847;28;20101;-51
2023/03/26 03:00:44;;;;;;;0.45;0.45;;;9.30;99.90;;;;;;4994848;28;20113;-51
2023/03/26 03:03:10;;;;;;;1.90;1.40;;;9.30;99.90;;;;;;4994858;28;20037;-55
2023/03/26 03:05:37;;;;;;;0.65;0.50;;;9.30;99.90;;;;;;4994469;28;20030;-51
2023/03/26 03:08:04;;;;;;;3.00;1.42;;;9.40;99.90;;;;;;4994643;28;20042;-52
2023/03/26 03:10:31;;;;;;;0.63;0.60;;;9.30;99.90;;;;;;4994650;28;20117;-52
2023/03/26 03:12:58;;;;;;;0.65;0.63;;;9.30;99.90;;;;;;4994401;28;20041;-51
2023/03/26 03:15:24;;;;;;;0.32;0.32;;;9.20;99.90;;;;;;4994265;28;20034;-51
2023/03/26 03:17:50;;;;;;;2.28;0.57;;;9.20;99.90;;;;;;4994614;28;20105;-51
2023/03/26 03:20:16;;;;;;;0.90;0.77;;;9.30;99.90;;;;;;4992451;28;20041;-51
2023/03/26 03:22:42;;;;;;;0.90;0.90;;;9.40;99.90;;;;;;4993981;28;20046;-52
2023/03/26 03:25:13;;;;;;;0.30;0.30;;;9.40;99.90;;;;;;4994332;28;20092;-51
2023/03/26 03:27:40;;;;;;;0.60;0.50;;;9.50;99.90;;;;;;4994053;28;20053;-52
2023/03/26 03:30:06;;;;;;;0.52;0.52;;;9.40;99.90;;;;;;4994230;28;20394;-52
2023/03/26 03:32:32;;;;;;;1.55;1.23;;;9.50;99.90;;;;;;4992406;28;20045;-51
2023/03/26 03:34:58;;;;;;;1.65;1.55;;;9.50;99.90;;;;;;4994102;28;20026;-52
2023/03/26 03:37:25;;;;;;;3.30;1.30;;;9.40;99.90;;;;;;4994452;28;20026;-51
2023/03/26 03:39:50;;;;;;;0.35;0.35;;;9.40;99.90;;;;;;4992267;28;20069;-50
2023/03/26 03:42:16;;;;;;;1.65;0.63;;;9.30;99.90;;;;;;5008561;28;20136;-50
2023/03/26 03:44:42;;;;;;;0.55;0.55;;;9.20;99.90;;;;;;4993993;28;20030;-51
2023/03/26 03:47:12;;;;;;;2.92;1.05;;;9.20;99.90;;;;;;4994178;28;20034;-51
2023/03/26 03:49:38;;;;;;;1.85;1.08;;;9.10;99.90;;;;;;5007929;28;20078;-51
2023/03/26 03:52:04;;;;;;;0.95;0.95;;;9.10;99.90;;;;;;4993912;28;20086;-51
2023/03/26 03:54:30;;;;;;;1.70;1.00;;;9.10;99.90;;;;;;5008262;28;20034;-52
2023/03/26 03:56:56;;;;;;;2.28;0.70;;;9.10;99.90;;;;;;4993997;28;20059;-50
2023/03/26 03:59:22;;;;;;;2.08;1.88;;;9.00;99.90;;;;;;4993944;28;20062;-51
2023/03/26 04:01:49;;;;;;;0.50;0.50;;;8.80;99.90;;;;;;4994038;28;20065;-50
2023/03/26 04:04:15;;;;;;;0.45;0.45;;;8.60;99.90;;;;;;4993993;28;20085;-51
2023/03/26 04:06:41;;;;;;;1.10;0.60;;;8.20;99.90;;;;;;4994271;28;20430;-52
2023/03/26 04:09:09;;;;;;;1.45;0.57;;;8.20;99.90;;;;;;4993651;28;20022;-50
2023/03/26 04:11:35;;;;;;;0.95;0.95;;;8.50;99.90;;;;;;4993719;28;20038;-51
2023/03/26 04:14:01;;;;;;;0.70;0.45;;;8.60;99.90;;;;;;4993941;28;20049;-51
2023/03/26 04:16:27;;;;;;;0.32;0.25;;;8.70;99.90;;;;;;4993783;28;20447;-52
2023/03/26 04:18:53;;;;;;;0.40;0.40;;;8.80;99.90;;;;;;4993570;28;20105;-51
2023/03/26 04:21:18;;;;;;;0.65;0.65;;;8.80;99.90;;;;;;4993748;28;20031;-51
2023/03/26 04:23:44;;;;;;;0.63;0.63;;;8.80;99.90;;;;;;4993417;28;20050;-51
2023/03/26 04:26:18;;;;;;;0.80;0.40;;;8.80;99.90;;;;;;4994054;28;20037;-50
2023/03/26 04:28:47;;;;;;;0.65;0.35;;;8.70;99.90;;;;;;4997748;28;20038;-51
2023/03/26 04:31:16;;;;;;;0.35;0.35;;;8.70;99.90;;;;;;5028756;28;20034;-50
2023/03/26 04:33:47;;;;;;;0.90;0.85;;;;;;;;;;4997987;28;20033;-49
2023/03/26 04:36:15;;;;;;;0.60;0.60;;;8.80;99.90;;;;;;4997683;28;20173;-51
2023/03/26 04:38:48;;;;;;;0.35;0.30;;;8.80;99.90;;;;;;4997260;28;20105;-50
2023/03/26 04:41:14;;;;;;;0.80;0.80;;;8.80;99.90;;;;;;4997770;28;20044;-50
2023/03/26 04:43:49;;;;;;;0.40;0.40;;;8.90;99.90;;;;;;4997757;28;20030;-50
2023/03/26 04:46:20;;;;;;;3.70;1.05;;;8.80;99.90;;;;;;4997088;28;20129;-51
2023/03/26 04:48:47;;;;;;;0.45;0.45;;;8.90;99.90;;;;;;4997038;28;20099;-50
2023/03/26 04:51:16;;;;;;;0.68;0.68;;;9.00;99.90;;;;;;4997265;28;20035;-51
2023/03/26 04:53:56;;;;;;;0.20;0.20;;;9.10;99.90;;;;;;4997081;28;20046;-50
2023/03/26 04:56:37;;;;;;;0.30;0.30;;;9.10;99.90;;;;;;4997456;28;20116;-51
2023/03/26 04:59:03;;;;;;;0.60;0.60;;;9.20;99.90;;;;;;4997022;28;20027;-51
2023/03/26 05:01:29;;;;;;;0.68;0.60;;;9.30;99.90;;;;;;4997268;28;20023;-50
2023/03/26 05:03:57;;;;;;;0.65;0.65;;;9.30;99.90;;;;;;5011341;28;20038;-49
2023/03/26 05:06:26;;;;;;;1.17;0.70;;;9.30;99.90;;;;;;4996941;28;20193;-50
2023/03/26 05:08:53;;;;;;;0.20;0.20;;;9.50;99.90;;;;;;4996836;28;20113;-49
2023/03/26 05:11:18;;;;;;;0.20;0.20;;;9.30;99.90;;;;;;4996824;28;20034;-50
2023/03/26 05:13:45;;;;;;;0.90;0.90;;;9.20;99.90;;;;;;5011134;28;20050;-50
2023/03/26 05:16:12;;;;;;;0.30;0.30;;;8.80;99.90;;;;;;4996867;28;20109;-49
2023/03/26 05:18:38;;;;;;;1.42;0.75;;;8.50;99.90;;;;;;4978465;28;20034;-51
2023/03/26 05:21:04;;;;;;;0.55;0.55;;;8.40;99.90;;;;;;4996652;28;20027;-51
2023/03/26 05:23:30;;;;;;;1.88;0.60;;;8.40;99.90;;;;;;5010966;28;20042;-49
2023/03/26 05:25:56;;;;;;;0.40;0.40;;;8.40;99.90;;;;;;4994537;28;20062;-50
2023/03/26 05:28:23;;;;;;;0.25;0.25;;;8.20;99.90;;;;;;4996260;28;20390;-50
2023/03/26 05:30:51;;;;;;;0.20;0.20;;;8.00;99.90;;;;;;4996767;28;20061;-49
2023/03/26 05:33:18;;;;;;;0.30;0.30;;;7.80;99.90;;;;;;4996686;28;20041;-49
2023/03/26 05:35:44;;;;;;;0.28;0.28;;;7.70;99.90;;;;;;4994553;28;20457;-50
2023/03/26 05:38:11;;;;;;;0.10;0.10;;;;;;;;;;4994873;28;20054;-50
2023/03/26 05:40:36;;;;;;;0.17;0.17;;;7.90;99.90;;;;;;4996620;28;20030;-50
2023/03/26 05:43:03;;;;;;;0.20;0.20;;;8.00;99.90;;;;;;4996098;28;20034;-50
2023/03/26 05:45:29;;;;;;;0.25;0.25;;;8.20;99.90;;;;;;4996725;28;20022;-49
2023/03/26 05:47:55;;;;;;;0.43;0.43;;;8.30;99.90;;;;;;4995993;28;20116;-50
2023/03/26 05:50:21;;;;;;;0.22;0.22;;;8.40;99.90;;;;;;4996202;28;20033;-49
2023/03/26 05:52:47;;;;;;;0.40;0.40;;;8.60;99.90;;;;;;4995899;28;20481;-49
2023/03/26 05:55:12;;;;;;;0.40;0.40;;;8.60;99.90;;;;;;4995947;28;20104;-50
2023/03/26 05:57:39;;;;;;;0.25;0.25;;;8.80;99.90;;;;;;4995910;28;20030;-51
2023/03/26 06:00:10;;;;;;;0.30;0.30;;;8.70;99.90;;;;;;4996495;28;20030;-51
2023/03/26 06:02:36;;;;;;;0.85;0.60;;;8.80;99.90;;;;;;5009821;28;20549;-50
2023/03/26 06:05:03;;;;;;;0.20;0.20;;;8.80;99.90;;;;;;4996417;28;20038;-50
2023/03/26 06:07:30;;;;;;;0.20;0.20;;;8.80;99.90;;;;;;4993893;28;20061;-50
2023/03/26 06:09:56;;;;;;;0.35;0.35;;;8.60;99.90;;;;;;4995637;28;20422;-50
2023/03/26 06:12:21;;;;;;;0.93;0.93;;;8.70;99.90;;;;;;4995862;28;20390;-51
2023/03/26 06:14:47;;;;;;;0.30;0.30;;;9.10;99.90;;;;;;4995671;28;20038;-49
2023/03/26 06:17:14;;;;;;;0.50;0.30;;;9.10;99.90;;;;;;5007710;28;20117;-50
2023/03/26 06:19:40;;;;;;;0.77;0.77;;;9.40;99.90;;;;;;5013272;28;20482;-50
2023/03/26 06:22:05;;;;;;;0.47;0.47;;;9.40;99.90;;;;;;5015142;28;20026;-51
2023/03/26 06:24:32;;;;;;;0.20;0.20;;;;;;;;;;5029670;28;20046;-51
2023/03/26 06:26:58;;;;;;;0.20;0.20;;;9.80;99.90;;;;;;5014774;28;20041;-51
2023/03/26 06:29:24;;;;;;;0.20;0.20;;;10.00;99.90;;;;;;5015033;28;20037;-51
2023/03/26 06:31:49;;;;;;;0.60;0.60;;;10.20;99.90;;;;;;4996851;28;20120;-51
2023/03/26 06:34:15;;;;;;;0.10;0.10;;;10.00;99.90;;;;;;5014985;28;20030;-51
2023/03/26 06:36:41;;;;;;;0.43;0.43;;;10.30;99.90;;;;;;5014846;28;20113;-50
2023/03/26 06:39:07;;;;;;;1.25;1.15;;;10.40;99.90;;;;;;5014726;28;20029;-50
2023/03/26 06:41:34;;;;;;;0.40;0.40;;;10.70;99.90;;;;;;5012625;28;20430;-50
2023/03/26 06:44:00;;;;;;;0.30;0.30;;;10.80;99.90;;;;;;5014484;28;20470;-51
2023/03/26 06:46:26;;;;;;;0.47;0.47;;;11.00;99.90;;;;;;4996219;28;20053;-52
2023/03/26 06:48:52;;;;;;;0.20;0.20;;;11.20;99.90;;;;;;5014289;28;20029;-51
2023/03/26 06:51:18;;;;;;;0.40;0.40;;;11.60;99.90;;;;;;5014758;28;20030;-52
2023/03/26 06:53:44;;;;;;;0.30;0.30;;;11.80;99.90;;;;;;5014737;28;20026;-50
2023/03/26 06:56:09;;;;;;;0.20;0.20;;;12.10;99.90;;;;;;5014542;28;20481;-50
2023/03/26 06:58:35;;;;;;;0.30;0.30;;;12.20;99.90;;;;;;5012715;28;20065;-50
2023/03/26 07:01:01;;;;;;;0.22;0.22;;;12.30;99.90;;;;;;5051791;28;20618;-50
2023/03/26 07:03:28;;;;;;;0.20;0.20;;;;;;;;;;5052078;28;20037;-51
2023/03/26 07:05:54;;;;;;;0.35;0.35;;;12.40;99.90;;;;;;5051812;28;20111;-52
2023/03/26 07:08:20;;;;;;;1.58;1.00;;;;;;;;;;5051782;28;20032;-52
2023/03/26 07:10:46;;;;;;;0.20;0.20;;;;;;;;;;5051666;28;20041;-50
2023/03/26 07:13:12;;;;;;;0.20;0.20;;;;;;;;;;5051643;28;20029;-49
2023/03/26 07:15:37;;;;;;;0.47;0.43;;;13.40;99.90;;;;;;5051445;28;20240;-50
2023/03/26 07:18:03;;;;;;;0.50;0.50;;;13.90;99.90;;;;;;5051284;28;20497;-52
2023/03/26 07:20:29;;;;;;;0.50;0.50;;;14.20;99.90;;;;;;5051487;28;20037;-50
2023/03/26 07:22:55;;;;;;;0.17;0.17;;;14.20;99.90;;;;;;5051391;28;20459;-52
2023/03/26 07:25:21;;;;;;;0.45;0.45;;;14.10;99.90;;;;;;5051308;28;20555;-52
2023/03/26 07:28:09;;;;;;;0.10;0.10;;;14.20;99.90;;;;;;5001359;28;20154;-52
2023/03/26 07:30:44;;;;;;;0.50;0.50;;;14.40;99.90;;;;;;5034602;28;20045;-52
2023/03/26 07:33:15;;;;;;;1.02;0.60;;;14.40;99.90;;;;;;5013882;28;20030;-52
2023/03/26 07:35:43;;;;;;;0.47;0.22;;;;;;;;;;5012766;28;20058;-52
2023/03/26 07:38:30;;;;;;;1.23;0.50;;;15.00;99.90;;;;;;5012787;28;20057;-50
2023/03/26 07:41:07;;;;;;;0.73;0.30;;;15.30;99.90;;;;;;5027136;28;20037;-53
2023/03/26 07:43:42;;;;;;;0.10;0.10;;;15.40;99.90;;;;;;5043668;28;20038;-50
2023/03/26 07:46:11;;;;;;;0.20;0.20;;;15.20;99.90;;;;;;5026965;28;20402;-51
2023/03/26 07:48:42;;;;;;;0.20;0.20;;;;;;;;;;5010391;28;20120;-50
2023/03/26 07:51:08;;;;;;;0.15;0.15;;;16.10;99.90;;;;;;5012593;28;20029;-53
2023/03/26 07:53:34;;;;;;;0.10;0.10;;;15.70;99.90;;;;;;5012600;28;20523;-53
2023/03/26 07:56:33;;;;;;;0.00;0.00;;;15.80;99.90;;;;;;5010465;28;20065;-52
2023/03/26 07:59:37;;;;;;;0.10;0.10;;;15.70;99.90;;;;;;5011997;28;20044;-53
2023/03/26 08:02:39;;;;;;;0.10;0.10;;;;;;;;;;5026165;28;20084;-53
2023/03/26 08:05:20;;;;;;;0.10;0.10;;;16.20;99.90;;;;;;5010068;28;20541;-53
2023/03/26 08:08:23;;;;;;;0.40;0.40;;;16.20;99.90;;;;;;5009856;28;20041;-51
2023/03/26 08:10:49;;;;;;;0.38;0.32;;;;;;;;;;5010046;28;20030;-52
2023/03/26 08:13:30;;;;;;;0.68;0.68;;;;;;;;;;5009951;28;20442;-53
2023/03/26 08:16:05;;;;;;;0.13;0.13;;;17.50;99.90;;;;;;5010079;28;20026;-51
2023/03/26 08:18:58;;;;;;;0.10;0.10;;;17.70;99.90;;;;;;5009900;28;20109;-51
2023/03/26 08:21:34;;;;;;;0.15;0.15;;;17.30;99.90;;;;;;5009803;28;20099;-50
2023/03/26 08:24:35;;;;;;;0.03;0.03;;;17.30;99.90;;;;;;5009593;28;20068;-52
2023/03/26 08:27:20;;;;;;;0.20;0.20;;;17.40;99.90;;;;;;4951464;29;20051;-53
2023/03/26 08:29:48;;;;;;;0.20;0.20;;;17.80;98.50;;;;;;4951466;29;20039;-50
2023/03/26 08:32:17;;;;;;;0.25;0.25;;;18.60;96.00;;;;;;4951445;29;20047;-51
2023/03/26 08:34:43;;;;;;;0.35;0.20;;;18.60;94.70;;;;;;4935382;29;20051;-51
2023/03/26 08:37:09;;;;;;;0.20;0.10;;;18.90;93.30;;;;;;4951523;29;20039;-53
2023/03/26 08:39:37;;;;;;;0.08;0.08;;;;;;;;;;4951219;28;20053;-54
2023/03/26 08:42:18;;;;;;;0.00;0.00;;;20.30;91.60;;;;;;4951497;29;20114;-53
2023/03/26 08:44:47;;;;;;;0.10;0.10;;;20.50;91.50;;;;;;4951423;29;20402;-49
2023/03/26 08:47:55;;;;;;;0.30;0.30;;;20.70;92.10;;;;;;4951313;29;20114;-50
2023/03/26 08:50:27;;;;;;;0.57;0.20;;;;;;;;;;4950068;29;20051;-50
2023/03/26 08:53:14;;;;;;;0.30;0.20;;;20.80;90.30;;;;;;4915602;29;20032;-50
2023/03/26 08:56:11;;;;;;;0.20;0.20;;;20.70;90.40;;;;;;4946927;29;20047;-50
2023/03/26 08:59:12;;;;;;;0.10;0.10;;;20.80;90.00;;;;;;4941250;29;20503;-51
2023/03/26 09:01:56;;;;;;;0.00;0.00;;;;;;;;;;4970469;28;20035;-50
2023/03/26 09:04:53;;;;;;;0.10;0.10;;;19.60;84.80;;;;;;4982584;28;20126;-53
2023/03/26 09:07:21;;;;;;;0.10;0.10;;;;;;;;;;4989422;28;20745;-51
2023/03/26 09:10:23;;;;;;;0.13;0.13;;;;;;;;;;4989652;28;20356;-51
2023/03/26 09:13:04;;;;;;;0.20;0.20;;;;;;;;;;4952086;28;20047;-52
2023/03/26 09:15:42;;;;;;;0.20;0.20;;;;;;;;;;4954589;28;20431;-51
2023/03/26 09:18:26;;;;;;;0.10;0.10;;;;;;;;;;4954225;28;20273;-51
2023/03/26 09:21:11;;;;;;;0.10;0.10;;;;;;;;;;4954118;28;20043;-50
2023/03/26 09:23:50;;;;;;;0.13;0.13;;;22.20;93.40;;;;;;4937744;29;20055;-53
2023/03/26 09:26:53;;;;;;;0.13;0.13;;;22.20;89.70;;;;;;4943379;28;20048;-49
2023/03/26 09:29:35;;;;;;;0.00;0.00;;;;;;;;;;4921017;29;20491;-52
2023/03/26 09:32:22;;;;;;;0.28;0.28;;;20.20;99.90;;;;;;4935073;29;20122;-52
2023/03/26 09:35:14;;;;;;;0.20;0.20;;;19.60;83.30;;;;;;4917529;29;20044;-52
2023/03/26 09:37:49;;;;;;;;;;;19.40;91.80;;;;;;4927737;29;20049;-50
2023/03/26 09:40:19;;;;;;;0.10;0.10;;;18.70;83.30;;;;;;4934987;29;19907;-49
2023/03/26 09:42:52;;;;;;;0.10;0.10;;;18.50;85.10;;;;;;4934855;29;20035;-51
2023/03/26 09:45:41;;;;;;;0.63;0.22;;;17.80;84.70;;;;;;4944412;29;20062;-50
2023/03/26 09:48:07;;;;;;;0.30;0.30;;;17.70;84.30;;;;;;5014490;28;20045;-51
2023/03/26 09:50:51;;;;;;;0.32;0.20;;;17.90;87.20;;;;;;5014533;28;20022;-50
2023/03/26 09:53:28;;;;;;;0.40;0.20;;;18.10;87.90;;;;;;5014619;28;20550;-52
2023/03/26 09:56:13;;;;;;;0.22;0.22;;;18.10;88.70;;;;;;5012152;28;20033;-49
2023/03/26 09:59:20;;;;;;;0.20;0.20;;;18.00;85.60;;;;;;5014289;28;20022;-49
2023/03/26 10:02:22;;;;;;;0.10;0.10;;;17.80;85.70;;;;;;5031545;28;20129;-51
2023/03/26 10:05:07;;;;;;;0.10;0.10;;;18.10;87.00;;;;;;5031740;28;20033;-49
2023/03/26 10:07:57;;;;;;;0.45;0.30;;;17.90;87.60;;;;;;5031496;28;20037;-54
2023/03/26 10:10:37;;;;;;;0.00;0.00;;;17.60;85.30;;;;;;5031649;28;20032;-52
2023/03/26 10:13:24;;;;;;;0.17;0.17;;;18.10;87.90;;;;;;5031387;28;20433;-51
2023/03/26 10:16:04;;;;;;;0.40;0.40;;;18.20;84.40;;;;;;5031518;28;20087;-49
2023/03/26 10:19:22;;;;;;;0.20;0.20;;;18.60;88.20;;;;;;5031333;28;20049;-50
2023/03/26 10:21:50;;;;;;;0.10;0.10;;;18.60;86.20;;;;;;5011807;28;20604;-49
2023/03/26 10:24:35;;;;;;;0.20;0.20;;;19.10;86.70;;;;;;5029332;28;20046;-51
2023/03/26 10:27:20;;;;;;;0.22;0.22;;;19.30;89.10;;;;;;5031208;28;20173;-51
2023/03/26 10:30:16;;;;;;;0.40;0.40;;;19.60;87.90;;;;;;5031190;28;20034;-52
2023/03/26 10:32:44;;;;;;;0.50;0.50;;;;;;;;;;5031246;28;20064;-52
2023/03/26 10:35:58;;;;;;;0.25;0.25;;;20.90;88.50;;;;;;5031100;28;20033;-52
2023/03/26 10:38:33;;;;;;;0.10;0.10;;;;;;;;;;5014929;28;20034;-52
2023/03/26 10:41:03;;;;;;;0.20;0.20;;;21.70;81.60;;;;;;5013734;28;20057;-51
2023/03/26 10:43:48;;;;;;;0.10;0.10;;;;;;;;;;5013539;28;20037;-52
2023/03/26 10:46:33;;;;;;;0.10;0.10;;;;;;;;;;5013879;28;20108;-52
2023/03/26 10:49:19;;;;;;;0.20;0.20;;;;;;;;;;5027744;28;20042;-50
2023/03/26 10:51:50;;;;;;;0.10;0.10;;;23.00;83.30;;;;;;5013093;28;20033;-49
2023/03/26 10:54:34;;;;;;;0.30;0.30;;;;;;;;;;5013171;28;20111;-51
2023/03/26 10:57:02;;;;;;;0.20;0.20;;;;;;;;;;5013186;28;20029;-52
2023/03/26 10:59:29;;;;;;;0.25;0.25;;;23.70;99.50;;;;;;5013192;28;20069;-49
2023/03/26 11:02:00;;;;;;;0.17;0.17;;;;;;;;;;5013388;28;20049;-50
2023/03/26 11:04:32;;;;;;;0.10;0.10;;;22.80;78.10;;;;;;5013213;28;20062;-52
2023/03/26 11:07:16;;;;;;;0.38;0.38;;;23.20;79.10;;;;;;5027442;28;20184;-50
2023/03/26 11:10:01;;;;;;;1.13;0.93;;;22.70;81.10;;;;;;5013181;28;20506;-48
2023/03/26 11:12:54;;;;;;;0.45;0.45;;;22.30;81.60;;;;;;5012729;28;20033;-49
2023/03/26 11:15:38;;;;;;;0.30;0.30;;;22.40;83.50;;;;;;5013143;28;20033;-50
2023/03/26 11:18:09;;;;;;;0.10;0.10;;;21.50;83.40;;;;;;5012986;28;20026;-52
2023/03/26 11:20:44;;;;;;;0.10;0.10;;;22.60;82.50;;;;;;5012904;28;20025;-49
2023/03/26 11:23:34;;;;;;;0.20;0.20;;;22.80;83.80;;;;;;5012895;28;20046;-48
2023/03/26 11:26:17;;;;;;;0.10;0.10;;;;;;;;;;5013021;28;20113;-51
2023/03/26 11:29:04;;;;;;;0.82;0.82;;;;;;;;;;5012901;28;20112;-50
2023/03/26 11:31:48;;;;;;;0.10;0.10;;;22.90;81.90;;;;;;5012959;28;20121;-51
2023/03/26 11:34:17;;;;;;;0.10;0.10;;;22.20;80.70;;;;;;5012768;28;20026;-49
2023/03/26 11:36:51;;;;;;;0.10;0.10;;;21.70;83.90;;;;;;5011387;28;20033;-52
2023/03/26 11:39:28;;;;;;;0.17;0.17;;;21.80;83.60;;;;;;5012586;28;20030;-52
2023/03/26 11:42:06;;;;;;;0.10;0.10;;;22.10;83.90;;;;;;5012811;28;20038;-52
2023/03/26 11:44:39;;;;;;;0.20;0.20;;;22.60;85.30;;;;;;5026861;28;20044;-51
2023/03/26 11:47:09;;;;;;;0.10;0.10;;;22.30;84.00;;;;;;5012500;28;20066;-50
2023/03/26 11:49:36;;;;;;;0.20;0.20;;;22.10;82.80;;;;;;5012450;28;20053;-52
2023/03/26 11:52:02;;;;;;;0.10;0.10;;;22.10;82.90;;;;;;5026870;28;20076;-50
2023/03/26 11:54:28;;;;;;;0.10;0.10;;;22.70;82.10;;;;;;5012287;28;20030;-51
2023/03/26 11:57:08;;;;;;;0.10;0.10;;;22.80;81.30;;;;;;5012423;28;20026;-52
2023/03/26 11:59:42;;;;;;;0.17;0.17;;;23.40;81.90;;;;;;5012433;28;20060;-50
2023/03/26 12:02:10;;;;;;;0.10;0.10;;;22.30;80.80;;;;;;5012365;28;20076;-49
2023/03/26 12:04:44;;;;;;;0.10;0.10;;;22.30;80.90;;;;;;5012272;28;20079;-51
2023/03/26 12:07:17;;;;;;;0.10;0.10;;;21.90;81.50;;;;;;5026603;28;20048;-52
2023/03/26 12:09:55;;;;;;;0.20;0.20;;;21.70;81.30;;;;;;5011882;28;20038;-50
2023/03/26 12:12:25;;;;;;;0.17;0.17;;;22.20;83.10;;;;;;5012317;28;20022;-51
2023/03/26 12:14:51;;;;;;;0.10;0.10;;;22.80;83.50;;;;;;5012569;28;20168;-52
2023/03/26 12:17:31;;;;;;;0.10;0.10;;;22.10;78.60;;;;;;5012244;28;20120;-53
2023/03/26 12:19:57;;;;;;;0.20;0.20;;;21.50;79.00;;;;;;5026675;28;20034;-53
2023/03/26 12:22:36;;;;;;;0.10;0.10;;;;;;;;;;5012197;28;20034;-51
2023/03/26 12:25:18;;;;;;;0.10;0.10;;;20.60;91.60;;;;;;5040596;28;20034;-52
2023/03/26 12:27:49;;;;;;;0.10;0.10;;;21.20;81.40;;;;;;5012064;28;20042;-52
2023/03/26 12:30:24;;;;;;;0.20;0.20;;;21.00;80.50;;;;;;5012092;28;20440;-53
2023/03/26 12:32:52;;;;;;;0.10;0.10;;;21.00;81.80;;;;;;5013025;28;20489;-49
2023/03/26 12:35:25;;;;;;;0.45;0.45;;;20.30;80.80;;;;;;5012956;28;20041;-51
2023/03/26 12:38:12;;;;;;;0.28;0.28;;;20.60;82.60;;;;;;5012878;28;20038;-49
2023/03/26 12:40:38;;;;;;;0.20;0.20;;;20.40;85.00;;;;;;5012940;28;20045;-51
2023/03/26 12:43:37;;;;;;;0.10;0.10;;;20.20;84.20;;;;;;5013298;28;20056;-50
2023/03/26 12:46:18;;;;;;;0.28;0.28;;;20.10;85.50;;;;;;5012993;28;20046;-51
2023/03/26 12:48:43;;;;;;;0.20;0.20;;;20.00;86.60;;;;;;5015734;28;20095;-51
2023/03/26 12:51:28;;;;;;;0.15;0.10;;;19.90;87.30;;;;;;5031597;28;20739;-51
2023/03/26 12:54:17;;;;;;;0.13;0.13;;;20.10;88.40;;;;;;5016643;28;20084;-51
2023/03/26 12:57:11;;;;;;;0.55;0.50;;;20.20;85.50;;;;;;5034205;28;20033;-52
2023/03/26 12:59:49;;;;;;;0.10;0.10;;;20.50;85.50;;;;;;4994914;28;20038;-52
2023/03/26 13:02:36;;;;;;;0.20;0.20;;;20.90;86.60;;;;;;4994888;28;20053;-51
2023/03/26 13:05:30;;;;;;;0.20;0.20;;;21.00;83.40;;;;;;4994010;28;20052;-51
2023/03/26 13:08:19;;;;;;;0.30;0.28;;;21.10;84.60;;;;;;4993196;28;20051;-51
2023/03/26 13:11:16;;;;;;;0.43;0.30;;;21.40;85.50;;;;;;4993364;28;20058;-49
2023/03/26 13:14:11;;;;;;;0.10;0.10;;;22.00;90.30;;;;;;4993296;28;20190;-50
2023/03/26 13:16:40;;;;;;;0.10;0.10;;;22.40;83.00;;;;;;4978392;28;20041;-52
2023/03/26 13:19:24;;;;;;;0.00;0.00;;;22.10;82.00;;;;;;4993196;28;20038;-50
2023/03/26 13:21:59;;;;;;;0.28;0.28;;;22.30;81.10;;;;;;4993155;28;20465;-51
2023/03/26 13:24:55;;;;;;;0.00;0.00;;;22.30;78.90;;;;;;4993059;28;20057;-48
2023/03/26 13:27:45;;;;;;;0.20;0.20;;;22.20;86.00;;;;;;4992948;28;20039;-49
2023/03/26 13:30:32;;;;;;;0.65;0.40;;;22.30;90.10;;;;;;4993211;28;20045;-52
2023/03/26 13:33:18;;;;;;;0.17;0.17;;;22.60;82.70;;;;;;4989479;28;20082;-52
2023/03/26 13:35:47;;;;;;;0.10;0.10;;;22.80;78.40;;;;;;4977121;28;20035;-51